Time;durP1;ratioP1;P1;durP2;ratioP2;P2;SDS_P1;SDS_P2;PMS_P1;PMS_P2;Temp;Humidity;BMP_temperature;BMP_pressure;BME280_temperature;BME280_humidity;BME280_pressure;Samples;Min_cycle;Max_cycle;Signal;HPM_P1;HPM_P2
2023/03/26 00:00:13;;;;;;;;;;;;;;;11.09;56.17;99200.56;5066430;28;20331;-79
2023/03/26 00:02:39;;;;;;;;;;;;;;;10.96;56.21;99194.03;5068931;28;19920;-79
2023/03/26 00:05:05;;;;;;;;;;;;;;;10.84;56.02;99190.78;5068627;28;19931;-78
2023/03/26 00:07:31;;;;;;;;;;;;;;;10.79;57.38;99193.06;5087221;28;20008;-78
2023/03/26 00:09:57;;;;;;;;;;;;;;;10.62;59.89;99196.56;5081711;28;20019;-78
2023/03/26 00:12:23;;;;;;;;;;;;;;;10.50;62.52;99197.75;5089275;28;19927;-78
2023/03/26 00:14:50;;;;;;;;;;;;;;;10.58;64.73;99196.03;5081142;28;19924;-78
2023/03/26 00:17:16;;;;;;;;;;;;;;;10.62;67.42;99191.28;5087125;28;19920;-76
2023/03/26 00:19:41;;;;;;;;;;;;;;;10.73;68.20;99191.03;5083881;28;20288;-77
2023/03/26 00:22:09;;;;;;;;;;;;;;;10.87;67.67;99195.78;5086297;28;19928;-77
2023/03/26 00:24:36;;;;;;;;;;;;;;;10.90;68.25;99200.75;5082390;28;19963;-77
2023/03/26 00:27:01;;;;;;;;;;;;;;;10.98;67.42;99198.19;5086011;28;19920;-76
2023/03/26 00:29:27;;;;;;;;;;;;;;;10.80;68.66;99205.28;5082720;28;19928;-76
2023/03/26 00:31:52;;;;;;;;;;;;;;;10.48;68.38;99205.03;5082130;28;19920;-77
2023/03/26 00:34:17;;;;;;;;;;;;;;;10.27;67.76;99205.28;5064743;28;20296;-77
2023/03/26 00:36:45;;;;;;;;;;;;;;;10.05;68.22;99203.88;5086437;28;19926;-77
2023/03/26 00:39:11;;;;;;;;;;;;;;;10.08;67.42;99200.94;5061105;28;19924;-76
2023/03/26 00:41:41;;;;;;;;;;;;;;;10.12;67.08;99198.84;5086992;28;19962;-77
2023/03/26 00:44:07;;;;;;;;;;;;;;;9.91;65.19;99201.72;5082818;28;19935;-76
2023/03/26 00:46:32;;;;;;;;;;;;;;;9.33;64.70;99196.72;5085293;28;20011;-77
2023/03/26 00:48:58;;;;;;;;;;;;;;;9.13;65.67;99205.63;5082419;28;19925;-78
2023/03/26 00:51:24;;;;;;;;;;;;;;;8.78;65.63;99208.03;5070638;28;19920;-78
2023/03/26 00:53:50;;;;;;;;;;;;;;;8.53;67.31;99207.66;5064946;28;20292;-77
2023/03/26 00:56:15;;;;;;;;;;;;;;;8.67;67.11;99192.41;5086898;28;19931;-78
2023/03/26 00:58:41;;;;;;;;;;;;;;;8.81;66.86;99189.34;5080206;28;19920;-79
2023/03/26 01:01:08;;;;;;;;;;;;;;;8.81;67.50;99199.88;5068945;28;19924;-78
2023/03/26 01:03:34;;;;;;;;;;;;;;;8.89;67.01;99192.97;5080226;28;19924;-79
2023/03/26 01:06:06;;;;;;;;;;;;;;;8.72;68.38;99198.09;5083531;28;19928;-79
2023/03/26 01:08:32;;;;;;;;;;;;;;;8.89;67.08;99208.75;5084180;28;20399;-78
2023/03/26 01:11:03;;;;;;;;;;;;;;;8.88;66.09;99190.47;5082709;28;20002;-78
2023/03/26 01:13:33;;;;;;;;;;;;;;;8.80;66.40;99183.25;5084594;28;19920;-76
2023/03/26 01:16:00;;;;;;;;;;;;;;;8.79;64.61;99170.25;5084995;28;20030;-76
2023/03/26 01:18:32;;;;;;;;;;;;;;;8.80;63.83;99162.22;5082042;28;19928;-76
2023/03/26 01:21:04;;;;;;;;;;;;;;;9.00;62.80;99170.91;5083823;28;20298;-76
2023/03/26 01:23:45;;;;;;;;;;;;;;;9.13;61.98;99165.34;5084399;28;19985;-75
2023/03/26 01:26:17;;;;;;;;;;;;;;;8.99;63.11;99172.72;5064578;28;19920;-75
2023/03/26 01:28:43;;;;;;;;;;;;;;;9.01;63.98;99159.41;5083400;28;20413;-74
2023/03/26 01:31:16;;;;;;;;;;;;;;;9.07;63.83;99158.84;5064000;28;19932;-75
2023/03/26 01:33:46;;;;;;;;;;;;;;;9.10;64.24;99148.03;5085124;28;19920;-74
2023/03/26 01:36:32;;;;;;;;;;;;;;;9.23;63.98;99143.28;5063589;28;19928;-74
2023/03/26 01:39:02;;;;;;;;;;;;;;;9.21;64.51;99149.63;5079707;28;19967;-77
2023/03/26 01:41:33;;;;;;;;;;;;;;;9.18;65.45;99147.31;5067534;28;20379;-77
2023/03/26 01:44:20;;;;;;;;;;;;;;;9.16;65.50;99150.06;5081712;28;20354;-76
2023/03/26 01:46:46;;;;;;;;;;;;;;;9.17;65.80;99138.59;5071489;28;19924;-79
2023/03/26 01:49:12;;;;;;;;;;;;;;;9.01;66.72;99139.16;5066599;28;20308;-77
2023/03/26 01:51:38;;;;;;;;;;;;;;;9.07;66.92;99127.25;5082838;28;19920;-78
2023/03/26 01:54:05;;;;;;;;;;;;;;;9.11;66.80;99128.63;5066327;28;20365;-78
2023/03/26 01:56:36;;;;;;;;;;;;;;;9.11;67.48;99123.38;5084292;28;19920;-79
2023/03/26 01:59:21;;;;;;;;;;;;;;;9.18;67.05;99127.09;5083919;28;19920;-78
2023/03/26 02:02:05;;;;;;;;;;;;;;;9.20;66.93;99126.91;5080626;28;20003;-79
2023/03/26 02:04:42;;;;;;;;;;;;;;;9.17;67.30;99133.31;5082246;28;20016;-78
2023/03/26 02:07:11;;;;;;;;;;;;;;;9.21;67.12;99129.41;5084918;28;19927;-79
2023/03/26 02:09:44;;;;;;;;;;;;;;;9.09;68.74;99127.09;5083260;28;19920;-79
2023/03/26 02:12:10;;;;;;;;;;;;;;;9.08;69.42;99123.63;5067326;28;20296;-79
2023/03/26 02:14:36;;;;;;;;;;;;;;;9.02;71.48;99134.72;5081266;28;19920;-79
2023/03/26 02:17:01;;;;;;;;;;;;;;;9.00;70.80;99134.91;5065393;28;20416;-79
2023/03/26 02:19:27;;;;;;;;;;;;;;;8.89;72.65;99124.53;5083427;28;20321;-78
2023/03/26 02:21:58;;;;;;;;;;;;;;;8.91;72.59;99121.75;5084474;28;20021;-81
2023/03/26 02:24:25;;;;;;;;;;;;;;;8.95;72.77;99128.41;5050774;28;19935;-79
2023/03/26 02:26:54;;;;;;;;;;;;;;;8.86;73.74;99118.72;5066607;28;20418;-81
2023/03/26 02:29:21;;;;;;;;;;;;;;;8.84;73.25;99120.66;5071138;28;19920;-81
2023/03/26 02:31:48;;;;;;;;;;;;;;;8.95;73.37;99123.94;5068773;28;20376;-80
2023/03/26 02:34:15;;;;;;;;;;;;;;;8.92;73.89;99123.41;5083507;28;19924;-80
2023/03/26 02:36:48;;;;;;;;;;;;;;;8.91;74.80;99124.38;5072251;28;19971;-79
2023/03/26 02:39:13;;;;;;;;;;;;;;;8.99;74.63;99121.88;5068145;28;20390;-79
2023/03/26 02:41:40;;;;;;;;;;;;;;;8.99;74.14;99120.06;5069620;28;19965;-78
2023/03/26 02:44:10;;;;;;;;;;;;;;;9.00;74.79;99105.94;5070755;28;19935;-77
2023/03/26 02:47:14;;;;;;;;;;;;;;;8.86;77.19;99111.66;5002385;28;19957;-79
2023/03/26 02:49:39;;;;;;;;;;;;;;;8.88;77.03;99107.09;5005835;28;19983;-80
2023/03/26 02:52:05;;;;;;;;;;;;;;;8.80;77.37;99099.06;4985881;28;19926;-80
2023/03/26 02:54:33;;;;;;;;;;;;;;;8.72;76.39;99101.56;4990537;28;19921;-79
2023/03/26 02:57:11;;;;;;;;;;;;;;;8.67;74.87;99098.53;4986383;28;19921;-79
2023/03/26 03:00:11;;;;;;;;;;;;;;;8.59;75.80;99111.59;4995383;28;20121;-79
2023/03/26 03:02:37;;;;;;;;;;;;;;;8.66;75.70;99103.97;5005224;28;19933;-78
2023/03/26 03:05:25;;;;;;;;;;;;;;;8.71;75.70;99094.69;4982026;28;20445;-77
2023/03/26 03:07:58;;;;;;;;;;;;;;;8.75;75.82;99084.69;4988459;28;20799;-77
2023/03/26 03:10:26;;;;;;;;;;;;;;;8.70;75.76;99071.13;4986979;28;19975;-77
2023/03/26 03:13:04;;;;;;;;;;;;;;;8.44;76.05;99077.00;4993299;28;19921;-77
2023/03/26 03:15:30;;;;;;;;;;;;;;;8.23;76.71;99089.44;4988913;28;20033;-78
2023/03/26 03:17:55;;;;;;;;;;;;;;;8.07;78.31;99095.25;5039943;28;19920;-78
2023/03/26 03:20:21;;;;;;;;;;;;;;;8.02;79.82;99099.25;5069406;28;19920;-77
2023/03/26 03:22:47;;;;;;;;;;;;;;;7.65;82.96;99094.66;5064838;28;19923;-76
2023/03/26 03:25:13;;;;;;;;;;;;;;;7.69;83.50;99101.31;5068541;28;19920;-78
2023/03/26 03:27:40;;;;;;;;;;;;;;;7.61;83.59;99085.38;5065041;28;19979;-77
2023/03/26 03:30:11;;;;;;;;;;;;;;;7.67;82.54;99087.47;5068508;28;19963;-77
2023/03/26 03:32:45;;;;;;;;;;;;;;;7.43;83.78;99080.91;5083462;28;19928;-78
2023/03/26 03:35:14;;;;;;;;;;;;;;;7.45;84.03;99079.00;5086663;28;19984;-77
2023/03/26 03:37:42;;;;;;;;;;;;;;;7.55;83.53;99083.28;5065937;28;19943;-76
2023/03/26 03:40:09;;;;;;;;;;;;;;;7.44;83.78;99086.03;5067028;28;20444;-76
2023/03/26 03:42:36;;;;;;;;;;;;;;;7.51;83.32;99087.16;5067793;28;19925;-80
2023/03/26 03:45:03;;;;;;;;;;;;;;;7.47;84.01;99085.78;5052949;28;19931;-77
2023/03/26 03:47:47;;;;;;;;;;;;;;;7.46;84.65;99084.13;5084225;28;20133;-76
2023/03/26 03:50:16;;;;;;;;;;;;;;;7.41;85.02;99091.56;5067894;28;19942;-78
2023/03/26 03:52:55;;;;;;;;;;;;;;;7.33;85.26;99092.22;5068760;28;19928;-77
2023/03/26 03:55:22;;;;;;;;;;;;;;;7.32;85.45;99094.97;5066658;28;19969;-80
2023/03/26 03:57:51;;;;;;;;;;;;;;;7.14;87.25;99099.19;5053509;28;20002;-76
2023/03/26 04:00:19;;;;;;;;;;;;;;;7.15;87.80;99087.75;5065240;28;19920;-76
2023/03/26 04:02:57;;;;;;;;;;;;;;;7.03;89.05;99101.91;5065342;28;20047;-77
2023/03/26 04:05:25;;;;;;;;;;;;;;;6.92;90.04;99116.78;5065125;28;20045;-77
2023/03/26 04:07:50;;;;;;;;;;;;;;;6.94;89.71;99114.88;5068148;28;20368;-77
2023/03/26 04:10:25;;;;;;;;;;;;;;;6.97;90.60;99109.34;5084573;28;19989;-76
2023/03/26 04:13:02;;;;;;;;;;;;;;;6.92;91.00;99105.44;5085230;28;19973;-76
2023/03/26 04:15:46;;;;;;;;;;;;;;;6.77;93.15;99112.84;5086195;28;20730;-78
2023/03/26 04:18:11;;;;;;;;;;;;;;;6.68;94.23;99110.97;5070277;28;19928;-77
2023/03/26 04:20:45;;;;;;;;;;;;;;;6.55;95.73;99123.44;5067039;28;19934;-78
2023/03/26 04:23:17;;;;;;;;;;;;;;;6.61;95.72;99117.69;5061817;28;19921;-79
2023/03/26 04:25:52;;;;;;;;;;;;;;;6.71;95.83;99118.59;5066038;28;19924;-76
2023/03/26 04:28:27;;;;;;;;;;;;;;;6.80;94.40;99107.31;5108746;28;19951;-78
2023/03/26 04:31:15;;;;;;;;;;;;;;;6.76;93.00;99107.72;5082470;28;19998;-78
2023/03/26 04:33:47;;;;;;;;;;;;;;;6.70;92.58;99105.63;5068274;28;19928;-79
2023/03/26 04:36:15;;;;;;;;;;;;;;;6.40;94.31;99109.00;5063766;28;19970;-79
2023/03/26 04:38:43;;;;;;;;;;;;;;;6.26;95.29;99101.44;5064911;28;19920;-79
2023/03/26 04:41:11;;;;;;;;;;;;;;;6.26;95.76;99096.19;5063441;28;20307;-79
2023/03/26 04:43:51;;;;;;;;;;;;;;;6.44;94.54;99099.91;5067214;28;19965;-80
2023/03/26 04:46:42;;;;;;;;;;;;;;;6.42;94.66;99101.84;5081981;28;19920;-82
2023/03/26 04:49:14;;;;;;;;;;;;;;;6.46;93.90;99090.16;5064815;28;19924;-80
2023/03/26 04:51:40;;;;;;;;;;;;;;;6.40;93.67;99095.91;5082988;28;19920;-78
2023/03/26 04:54:19;;;;;;;;;;;;;;;6.44;93.23;99092.06;5068134;28;19935;-78
2023/03/26 04:57:27;;;;;;;;;;;;;;;6.55;92.11;99076.25;5063626;28;19928;-78
2023/03/26 05:00:13;;;;;;;;;;;;;;;6.43;90.46;99082.53;5068763;28;20016;-78
2023/03/26 05:02:40;;;;;;;;;;;;;;;6.49;90.10;99071.53;5065060;28;19920;-78
2023/03/26 05:05:06;;;;;;;;;;;;;;;6.58;89.69;99055.03;5070022;28;20401;-77
2023/03/26 05:07:34;;;;;;;;;;;;;;;6.71;88.78;99026.84;5067166;28;19924;-78
2023/03/26 05:10:02;;;;;;;;;;;;;;;6.81;88.40;99022.44;5052032;28;20291;-77
2023/03/26 05:12:36;;;;;;;;;;;;;;;6.82;89.27;99029.38;5089529;28;20065;-79
2023/03/26 05:15:15;;;;;;;;;;;;;;;6.92;88.12;99013.66;5063922;28;20307;-77
2023/03/26 05:18:03;;;;;;;;;;;;;;;6.89;88.10;99038.34;5080128;28;19920;-77
2023/03/26 05:20:41;;;;;;;;;;;;;;;6.58;90.03;99073.41;5084524;28;19924;-77
2023/03/26 05:23:09;;;;;;;;;;;;;;;6.42;91.51;99063.34;5063220;28;19943;-76
2023/03/26 05:25:54;;;;;;;;;;;;;;;6.00;93.31;99080.03;4729226;28;10000071;-81
2023/03/26 05:28:24;;;;;;;;;;;;;;;5.85;93.89;99082.06;5066119;28;19970;-81
2023/03/26 05:31:05;;;;;;;;;;;;;;;5.80;94.58;99084.22;5064762;28;19924;-82
2023/03/26 05:33:35;;;;;;;;;;;;;;;5.26;98.86;99079.81;5060520;28;19986;-81
2023/03/26 05:36:11;;;;;;;;;;;;;;;5.11;100.00;99080.19;5062497;28;19985;-80
2023/03/26 05:38:38;;;;;;;;;;;;;;;5.15;100.00;99074.59;5063228;28;19951;-81
2023/03/26 05:41:07;;;;;;;;;;;;;;;5.12;100.00;99067.00;5060481;28;20478;-81
2023/03/26 05:43:35;;;;;;;;;;;;;;;5.13;100.00;99076.50;5064204;28;19946;-81
2023/03/26 05:46:14;;;;;;;;;;;;;;;5.10;100.00;99079.38;5069246;28;19924;-80
2023/03/26 05:48:39;;;;;;;;;;;;;;;4.98;100.00;99085.53;5079762;28;19977;-83
2023/03/26 05:51:06;;;;;;;;;;;;;;;5.12;100.00;99095.78;5060673;28;19924;-80
2023/03/26 05:53:32;;;;;;;;;;;;;;;5.25;100.00;99099.06;5064747;28;19920;-81
2023/03/26 05:56:16;;;;;;;;;;;;;;;5.48;100.00;99101.69;5082687;28;19927;-82
2023/03/26 05:59:00;;;;;;;;;;;;;;;5.68;100.00;99108.75;5086222;28;19993;-83
2023/03/26 06:01:43;;;;;;;;;;;;;;;5.91;100.00;99101.72;5087014;28;19921;-82
2023/03/26 06:04:31;;;;;;;;;;;;;;;6.15;100.00;99100.53;5071699;28;20390;-84
2023/03/26 06:07:23;;;;;;;;;;;;;;;6.33;100.00;99097.38;5083376;28;19921;-84
2023/03/26 06:10:09;;;;;;;;;;;;;;;6.33;100.00;99102.59;5089225;28;19920;-83
2023/03/26 06:12:35;;;;;;;;;;;;;;;6.30;100.00;99100.25;5072691;28;19924;-84
2023/03/26 06:15:01;;;;;;;;;;;;;;;6.37;100.00;99098.75;5063223;28;19964;-84
2023/03/26 06:17:39;;;;;;;;;;;;;;;6.56;100.00;99096.28;5070922;28;20011;-83
2023/03/26 06:20:13;;;;;;;;;;;;;;;6.66;99.33;99105.03;5059169;28;19921;-88
2023/03/26 06:22:41;;;;;;;;;;;;;;;6.68;98.82;99092.63;5069151;28;19920;-89
2023/03/26 06:25:18;;;;;;;;;;;;;;;6.78;98.06;99085.63;5091079;28;19920;-91
2023/03/26 06:27:58;;;;;;;;;;;;;;;6.89;97.56;99090.00;5069679;28;19916;-91
2023/03/26 06:30:39;;;;;;;;;;;;;;;6.94;97.98;99077.31;5093771;28;19920;-90
2023/03/26 06:33:12;;;;;;;;;;;;;;;6.99;98.86;99075.13;5082543;28;19963;-84
2023/03/26 06:35:44;;;;;;;;;;;;;;;7.15;100.00;99064.13;5050909;28;19916;-84
2023/03/26 06:38:11;;;;;;;;;;;;;;;7.23;98.52;99066.91;5090686;28;19924;-86
2023/03/26 06:40:37;;;;;;;;;;;;;;;7.23;98.42;99061.69;5066422;28;19916;-86
2023/03/26 06:43:25;;;;;;;;;;;;;;;7.31;98.58;99053.94;5044036;28;20334;-88
2023/03/26 06:46:14;;;;;;;;;;;;;;;7.35;98.76;99039.59;5084519;28;19920;-82
2023/03/26 06:48:54;;;;;;;;;;;;;;;7.47;98.03;99035.06;5084725;28;19925;-88
2023/03/26 06:51:49;;;;;;;;;;;;;;;7.57;96.84;99026.25;5022760;28;19925;-88
2023/03/26 06:54:44;;;;;;;;;;;;;;;7.71;95.97;99036.34;5019964;28;19961;-87
2023/03/26 06:57:32;;;;;;;;;;;;;;;7.86;95.16;99033.28;5070164;28;20320;-87
2023/03/26 07:00:16;;;;;;;;;;;;;;;7.96;95.05;99028.88;5090043;28;19927;-87
2023/03/26 07:03:17;;;;;;;;;;;;;;;8.12;94.21;99023.91;5048437;28;19921;-87
2023/03/26 07:06:09;;;;;;;;;;;;;;;8.17;93.81;99019.88;5060081;28;19955;-88
2023/03/26 07:08:54;;;;;;;;;;;;;;;8.23;92.63;99000.09;5090579;28;19961;-87
2023/03/26 07:11:55;;;;;;;;;;;;;;;8.28;91.24;98997.03;5079924;28;19924;-87
2023/03/26 07:14:55;;;;;;;;;;;;;;;8.30;91.28;99001.22;5061510;28;20027;-87
2023/03/26 07:17:47;;;;;;;;;;;;;;;8.35;90.61;99009.50;5083014;28;19920;-87
2023/03/26 07:20:20;;;;;;;;;;;;;;;8.23;91.65;99021.09;5052539;28;19924;-87
2023/03/26 07:22:46;;;;;;;;;;;;;;;8.29;91.25;99036.31;5065880;28;20011;-87
2023/03/26 07:25:15;;;;;;;;;;;;;;;8.25;89.45;99047.25;5068981;28;19974;-87
2023/03/26 07:28:04;;;;;;;;;;;;;;;8.18;88.83;99036.47;5067454;28;19965;-87
2023/03/26 07:31:01;;;;;;;;;;;;;;;8.09;88.89;99030.25;5097119;28;20327;-87
2023/03/26 07:34:15;;;;;;;;;;;;;;;7.94;89.71;99031.66;5067228;28;19919;-88
2023/03/26 07:37:04;;;;;;;;;;;;;;;7.99;89.54;99036.47;5086461;28;20705;-87
2023/03/26 07:39:45;;;;;;;;;;;;;;;8.05;89.66;99038.56;5066911;28;19965;-87
2023/03/26 07:42:31;;;;;;;;;;;;;;;8.17;89.36;99032.19;5085872;28;19920;-87
2023/03/26 07:45:23;;;;;;;;;;;;;;;8.26;89.41;99041.84;5066349;28;19931;-86
2023/03/26 07:48:17;;;;;;;;;;;;;;;8.00;92.10;99031.09;5052874;28;20395;-87
2023/03/26 07:51:05;;;;;;;;;;;;;;;8.20;91.39;99032.72;5089827;28;19920;-88
2023/03/26 07:53:47;;;;;;;;;;;;;;;8.36;90.71;99029.56;5066781;28;19928;-88
2023/03/26 07:56:50;;;;;;;;;;;;;;;8.56;90.40;99020.66;5069317;28;19920;-87
2023/03/26 07:59:39;;;;;;;;;;;;;;;8.85;89.29;99006.56;5086826;28;19972;-88
2023/03/26 08:02:23;;;;;;;;;;;;;;;9.03;88.77;98994.28;5085721;28;19965;-87
2023/03/26 08:05:09;;;;;;;;;;;;;;;9.29;87.94;98986.53;5086835;28;19948;-87
2023/03/26 08:08:07;;;;;;;;;;;;;;;9.53;87.88;98997.31;5073274;28;19920;-87
2023/03/26 08:11:01;;;;;;;;;;;;;;;9.69;87.39;99012.44;5075343;28;20014;-87
2023/03/26 08:13:30;;;;;;;;;;;;;;;9.91;88.61;99011.16;5067653;28;20382;-88
2023/03/26 08:16:04;;;;;;;;;;;;;;;10.12;90.95;99014.31;5060416;28;19946;-88
2023/03/26 08:18:53;;;;;;;;;;;;;;;10.37;95.69;99008.25;5066650;28;19955;-86
2023/03/26 08:21:47;;;;;;;;;;;;;;;10.46;100.00;99002.06;5038260;28;19920;-88
2023/03/26 08:24:19;;;;;;;;;;;;;;;10.53;100.00;99002.25;5065937;28;19927;-89
2023/03/26 08:27:02;;;;;;;;;;;;;;;10.59;100.00;98991.09;5087273;28;19920;-88
2023/03/26 08:29:34;;;;;;;;;;;;;;;10.68;100.00;98990.13;5085768;28;19920;-87
2023/03/26 08:32:00;;;;;;;;;;;;;;;10.81;100.00;98981.78;5063515;28;19935;-87
2023/03/26 08:34:25;;;;;;;;;;;;;;;10.85;100.00;98976.03;5090161;28;19920;-88
2023/03/26 08:36:51;;;;;;;;;;;;;;;10.90;100.00;98973.72;5082926;28;19973;-88
2023/03/26 08:39:18;;;;;;;;;;;;;;;11.00;100.00;98979.72;5075983;28;19988;-88
2023/03/26 08:41:59;;;;;;;;;;;;;;;11.11;100.00;98977.78;5104958;28;19908;-87
2023/03/26 08:44:47;;;;;;;;;;;;;;;11.17;100.00;98979.78;5102835;28;19920;-88
2023/03/26 08:47:16;;;;;;;;;;;;;;;11.31;100.00;98977.34;5069008;28;19920;-88
2023/03/26 08:49:53;;;;;;;;;;;;;;;11.43;100.00;98977.84;5085818;28;19928;-87
2023/03/26 08:52:28;;;;;;;;;;;;;;;11.59;100.00;98967.34;5083244;28;20003;-87
2023/03/26 08:55:03;;;;;;;;;;;;;;;11.68;100.00;98958.41;5083690;28;19967;-88
2023/03/26 08:57:48;;;;;;;;;;;;;;;11.79;100.00;98939.59;5064683;28;19924;-88
2023/03/26 09:00:14;;;;;;;;;;;;;;;11.88;100.00;98928.06;5065143;28;19966;-88
2023/03/26 09:03:00;;;;;;;;;;;;;;;12.03;100.00;98927.38;5084959;28;19923;-87
2023/03/26 09:05:25;;;;;;;;;;;;;;;12.16;100.00;98917.09;5069786;28;19924;-86
2023/03/26 09:08:02;;;;;;;;;;;;;;;12.31;100.00;98918.09;5086548;28;19920;-88
2023/03/26 09:10:27;;;;;;;;;;;;;;;12.46;100.00;98936.72;5068725;28;20010;-87
2023/03/26 09:12:55;;;;;;;;;;;;;;;12.50;100.00;98949.44;5083177;28;20355;-88
2023/03/26 09:15:27;;;;;;;;;;;;;;;12.60;100.00;98954.56;5068289;28;19935;-87
2023/03/26 09:17:52;;;;;;;;;;;;;;;12.66;100.00;98962.63;5064083;28;20018;-88
2023/03/26 09:20:42;;;;;;;;;;;;;;;12.68;100.00;98947.41;5064311;28;20310;-87
2023/03/26 09:23:26;;;;;;;;;;;;;;;12.71;100.00;98940.94;5068336;28;19920;-87
2023/03/26 09:26:10;;;;;;;;;;;;;;;12.69;100.00;98925.22;5084614;28;19920;-86
2023/03/26 09:28:35;;;;;;;;;;;;;;;12.78;100.00;98914.63;5065953;28;19947;-86
2023/03/26 09:31:01;;;;;;;;;;;;;;;12.77;100.00;98903.19;5081172;28;19920;-88
2023/03/26 09:33:26;;;;;;;;;;;;;;;12.77;100.00;98891.78;5087887;28;19927;-86
2023/03/26 09:36:00;;;;;;;;;;;;;;;12.76;100.00;98884.84;5091625;28;20608;-88
2023/03/26 09:38:29;;;;;;;;;;;;;;;12.81;100.00;98885.13;5089943;28;19920;-88
2023/03/26 09:41:04;;;;;;;;;;;;;;;12.82;100.00;98884.13;5090032;28;19977;-88
2023/03/26 09:43:30;;;;;;;;;;;;;;;12.81;100.00;98864.78;5093950;28;20284;-87
2023/03/26 09:46:01;;;;;;;;;;;;;;;12.89;100.00;98861.28;5070893;28;19920;-88
2023/03/26 09:48:46;;;;;;;;;;;;;;;12.99;100.00;98845.97;5091721;28;19966;-89
2023/03/26 09:51:20;;;;;;;;;;;;;;;13.15;100.00;98853.00;5077399;28;19924;-88
2023/03/26 09:54:04;;;;;;;;;;;;;;;13.34;100.00;98856.03;5087579;28;19947;-89
2023/03/26 09:56:50;;;;;;;;;;;;;;;13.48;100.00;98860.56;5089930;28;19924;-88
2023/03/26 09:59:24;;;;;;;;;;;;;;;13.63;100.00;98865.91;5088463;28;19950;-88
2023/03/26 10:02:03;;;;;;;;;;;;;;;13.69;100.00;98856.41;5060564;28;19920;-86
2023/03/26 10:04:39;;;;;;;;;;;;;;;13.76;100.00;98855.50;5074562;28;20325;-88
2023/03/26 10:07:25;;;;;;;;;;;;;;;13.83;100.00;98868.88;5097094;22;20411;-77
2023/03/26 10:09:54;;;;;;;;;;;;;;;13.94;100.00;98860.47;5084064;28;19921;-78
2023/03/26 10:12:22;;;;;;;;;;;;;;;14.01;100.00;98842.03;5089293;28;20019;-78
2023/03/26 10:15:08;;;;;;;;;;;;;;;14.11;100.00;98824.00;5085780;28;20236;-78
2023/03/26 10:17:39;;;;;;;;;;;;;;;14.21;100.00;98822.69;5086758;28;19931;-76
2023/03/26 10:20:29;;;;;;;;;;;;;;;14.22;100.00;98827.00;5053592;28;19925;-77
2023/03/26 10:23:10;;;;;;;;;;;;;;;14.30;100.00;98834.88;5084646;28;20280;-76
2023/03/26 10:26:14;;;;;;;;;;;;;;;14.39;100.00;98837.47;5085753;28;19927;-77
2023/03/26 10:28:58;;;;;;;;;;;;;;;14.52;100.00;98842.94;4990737;28;20040;-76
2023/03/26 10:31:42;;;;;;;;;;;;;;;14.63;100.00;98843.28;4972790;28;19922;-75
2023/03/26 10:34:18;;;;;;;;;;;;;;;14.83;100.00;98835.56;4975987;28;20378;-77
2023/03/26 10:36:50;;;;;;;;;;;;;;;14.96;100.00;98835.69;4990298;28;19921;-75
2023/03/26 10:39:17;;;;;;;;;;;;;;;15.10;100.00;98834.00;4988926;28;20497;-77
2023/03/26 10:42:03;;;;;;;;;;;;;;;15.20;100.00;98831.06;4993891;28;20012;-77
2023/03/26 10:44:46;;;;;;;;;;;;;;;15.27;100.00;98831.91;4993427;28;19922;-77
2023/03/26 10:47:18;;;;;;;;;;;;;;;15.27;100.00;98831.91;4993922;28;19984;-76
2023/03/26 10:49:55;;;;;;;;;;;;;;;15.18;100.00;98814.47;4990898;28;20020;-76
2023/03/26 10:52:28;;;;;;;;;;;;;;;15.17;100.00;98813.63;4987285;28;20020;-76
2023/03/26 10:55:02;;;;;;;;;;;;;;;15.18;100.00;98811.81;4987598;28;20391;-76
2023/03/26 10:57:49;;;;;;;;;;;;;;;15.30;100.00;98804.97;4974614;28;19922;-76
2023/03/26 11:00:15;;;;;;;;;;;;;;;15.33;100.00;98799.25;5071581;28;19920;-76
2023/03/26 11:02:59;;;;;;;;;;;;;;;15.31;100.00;98809.28;5087363;28;20347;-76
2023/03/26 11:05:24;;;;;;;;;;;;;;;15.42;100.00;98808.75;5085455;28;19924;-76
2023/03/26 11:08:00;;;;;;;;;;;;;;;15.46;100.00;98816.16;5086708;28;20487;-77
2023/03/26 11:10:44;;;;;;;;;;;;;;;15.49;100.00;98804.31;5066852;28;19920;-77
2023/03/26 11:13:33;;;;;;;;;;;;;;;15.53;100.00;98797.63;5085682;28;19916;-76
2023/03/26 11:15:58;;;;;;;;;;;;;;;15.43;100.00;98794.47;5045905;28;19921;-77
2023/03/26 11:18:38;;;;;;;;;;;;;;;15.51;100.00;98791.66;5085424;28;19926;-75
2023/03/26 11:21:12;;;;;;;;;;;;;;;15.52;100.00;98798.66;5085808;28;19920;-77
2023/03/26 11:23:47;;;;;;;;;;;;;;;15.56;100.00;98791.91;5084022;28;19924;-76
2023/03/26 11:26:16;;;;;;;;;;;;;;;15.61;100.00;98792.16;5065678;28;20349;-77
2023/03/26 11:28:53;;;;;;;;;;;;;;;15.64;100.00;98786.47;5069430;28;20579;-77
2023/03/26 11:31:21;;;;;;;;;;;;;;;15.68;99.81;98793.03;5087693;28;19982;-77
2023/03/26 11:33:52;;;;;;;;;;;;;;;15.81;99.49;98773.69;5054100;28;20410;-76
2023/03/26 11:36:21;;;;;;;;;;;;;;;15.94;98.94;98766.63;5082780;28;20401;-77
2023/03/26 11:38:49;;;;;;;;;;;;;;;15.93;98.48;98770.28;5080765;28;20168;-76
2023/03/26 11:41:21;;;;;;;;;;;;;;;15.92;98.46;98768.63;5068827;28;19920;-77
2023/03/26 11:44:12;;;;;;;;;;;;;;;15.99;98.06;98774.00;5069952;28;19920;-77
2023/03/26 11:46:41;;;;;;;;;;;;;;;16.03;97.72;98769.91;5080437;28;19961;-76
2023/03/26 11:49:09;;;;;;;;;;;;;;;16.02;97.52;98767.47;5083243;28;19999;-77
2023/03/26 11:51:36;;;;;;;;;;;;;;;15.98;97.46;98772.34;5085546;28;19962;-77
2023/03/26 11:54:04;;;;;;;;;;;;;;;15.91;98.37;98767.00;5087963;28;19927;-76
2023/03/26 11:56:31;;;;;;;;;;;;;;;15.82;98.58;98772.66;5085200;28;19916;-76
2023/03/26 11:58:59;;;;;;;;;;;;;;;15.82;98.92;98757.53;5084064;28;19920;-77
2023/03/26 12:01:39;;;;;;;;;;;;;;;15.79;99.54;98757.09;5065868;28;19921;-76
2023/03/26 12:04:09;;;;;;;;;;;;;;;15.86;98.91;98764.09;5089254;28;19942;-76
2023/03/26 12:06:35;;;;;;;;;;;;;;;15.84;98.83;98760.84;5075783;28;19920;-77
2023/03/26 12:09:01;;;;;;;;;;;;;;;15.76;98.60;98747.69;5093929;28;20043;-79
2023/03/26 12:11:27;;;;;;;;;;;;;;;15.80;98.82;98742.78;5093325;28;20463;-77
2023/03/26 12:13:59;;;;;;;;;;;;;;;15.80;98.56;98732.13;5084960;28;19926;-77
2023/03/26 12:16:25;;;;;;;;;;;;;;;15.82;98.39;98719.47;5065232;28;19920;-78
2023/03/26 12:19:01;;;;;;;;;;;;;;;15.73;98.37;98721.44;5087186;28;19920;-78
2023/03/26 12:21:27;;;;;;;;;;;;;;;15.78;98.69;98719.06;5085737;28;19959;-78
2023/03/26 12:23:56;;;;;;;;;;;;;;;15.88;98.41;98710.69;5088696;28;20329;-77
2023/03/26 12:26:41;;;;;;;;;;;;;;;15.94;98.55;98709.91;5083857;28;19920;-76
2023/03/26 12:29:11;;;;;;;;;;;;;;;15.98;97.54;98703.16;5073094;28;20356;-76
2023/03/26 12:31:54;;;;;;;;;;;;;;;16.04;97.54;98709.53;5071564;28;20340;-78
2023/03/26 12:34:21;;;;;;;;;;;;;;;16.11;97.38;98697.91;5087167;28;20014;-76
2023/03/26 12:36:51;;;;;;;;;;;;;;;16.14;97.36;98696.72;5089661;28;20003;-76
2023/03/26 12:39:25;;;;;;;;;;;;;;;16.20;96.24;98690.59;5084371;28;19974;-76
2023/03/26 12:41:55;;;;;;;;;;;;;;;16.18;95.02;98682.78;5090758;28;19920;-77
2023/03/26 12:44:24;;;;;;;;;;;;;;;16.28;94.91;98661.09;5080140;28;19920;-76
2023/03/26 12:46:52;;;;;;;;;;;;;;;16.60;93.52;98655.06;5082122;28;20387;-75
2023/03/26 12:49:18;;;;;;;;;;;;;;;16.94;91.20;98650.59;5083255;28;19920;-76
2023/03/26 12:51:48;;;;;;;;;;;;;;;16.93;89.93;98659.59;5083898;28;19927;-77
2023/03/26 12:54:32;;;;;;;;;;;;;;;16.70;91.47;98655.50;5086173;28;20013;-77
2023/03/26 12:57:06;;;;;;;;;;;;;;;16.52;92.53;98652.56;5066253;28;20289;-79
2023/03/26 12:59:51;;;;;;;;;;;;;;;16.38;93.27;98659.69;5086998;28;19920;-79
2023/03/26 13:02:31;;;;;;;;;;;;;;;16.31;93.94;98671.38;5059636;28;20338;-77
2023/03/26 13:04:57;;;;;;;;;;;;;;;16.23;93.86;98676.88;5080952;28;19921;-76
2023/03/26 13:07:32;;;;;;;;;;;;;;;16.13;94.60;98676.44;5085251;28;19927;-78
2023/03/26 13:10:10;;;;;;;;;;;;;;;15.91;95.74;98671.22;5084673;28;19932;-78
2023/03/26 13:12:59;;;;;;;;;;;;;;;15.75;96.64;98671.56;5083097;28;19920;-79
2023/03/26 13:15:44;;;;;;;;;;;;;;;15.70;97.17;98689.94;5076338;28;19920;-78
2023/03/26 13:18:17;;;;;;;;;;;;;;;15.67;98.41;98695.63;5082620;28;19921;-77
2023/03/26 13:21:01;;;;;;;;;;;;;;;15.61;99.59;98695.63;5085967;28;20006;-77
2023/03/26 13:23:35;;;;;;;;;;;;;;;15.49;100.00;98700.63;5065410;28;19924;-76
2023/03/26 13:26:09;;;;;;;;;;;;;;;15.39;100.00;98702.78;5082571;28;19928;-78
2023/03/26 13:28:38;;;;;;;;;;;;;;;15.37;100.00;98694.22;5084181;28;20264;-76